x

Smith Island, Wa (sisw1) Weather Station

11:00 - Fri 6th May 2016 All times are PDT. -7 hours from GMT.

  • Wind
    6mph, 7mph gusts
  • Aire Temp 57°f
  • Sea Pressure 1019.5mb
  • Smith Island, Wa
  • Smith Island, Wa

More Historic Weather Station data

Upgrade to MSW Pro to gain access to the past 30 days of data for over 8000 Wavebouys and Weather Stations around the globe.

Join Pro

Comparision Forecast

View Surf forecast
   
vie 05/06 11:00 6 7 mph 1019.5mb 57f
10:00 13 15 mph 1019.6mb 57f
9:00 11 13 mph 1019.5mb 55f
8:00 10 11 mph 1019.3mb 54f
7:00 16 17 mph 1019.2mb 54f
6:00 11 14 mph 1019.3mb 52f
5:00 6
mph
1019.4mb 52f
4:00 2 3 mph 1018.9mb 51f
3:00 8
mph
1018.3mb 51f
2:00 14 16 mph 1017.9mb 53f
1:00 16 18 mph 1017.8mb 53f
12:00 14 20 mph 1017.5mb 53f
jue 05/05 11:00 15 18 mph 1017.5mb 53f
10:00 10 11 mph 1017.8mb 52f
9:00 9 11 mph 1017.4mb 53f
8:00 11 13 mph 1016.9mb 54f
7:00 10 11 mph 1016.8mb 56f
6:00 8 9 mph 1016.7mb 58f
5:00 6 8 mph 1016.8mb 58f
4:00 7 8 mph 1017mb 58f
3:00 5 6 mph 1017.3mb 56f
2:00 2
mph
1017.7mb 57f
1:00 2 3 mph 1018mb 55f
12:00 9 11 mph 1018mb 55f
11:00 10 11 mph 1018.1mb 53f
10:00 10 14 mph 1017.9mb 53f
9:00 8 11 mph 1018mb 51f
8:00 11 14 mph 1017.5mb 51f
7:00 7 8 mph 1017.5mb 51f
6:00 7
mph
1017.3mb 50f
5:00 2 3 mph 1017mb 50f
4:00 6 7 mph 1017mb 51f
3:00 7 9 mph 1016.6mb 51f
2:00 15 18 mph 1016.4mb 51f
1:00 16 18 mph 1016.6mb 51f
12:00 16 18 mph 1016.2mb 51f
mié 05/04 11:00 11 14 mph 1016.3mb 51f
10:00 13 15 mph 1016.3mb 51f
9:00 10 14 mph 1016.1mb 51f
8:00 10 13 mph 1016.1mb 51f
7:00 7 9 mph 1016mb 52f
6:00 6
mph
1016.6mb 52f
5:00 5 6 mph 1016.9mb 53f
4:00 2 3 mph 1017.3mb 53f
3:00 3 5 mph 1017.9mb 54f
2:00 3 5 mph 1018mb 54f
1:00 2 3 mph 1018.6mb 54f
12:00 3 5 mph 1018.9mb 52f
11:00 5 6 mph 1018.8mb 52f
10:00 2 3 mph 1018.9mb 52f
9:00 5 7 mph 1018.9mb 50f
8:00 9 10 mph 1019mb 50f
7:00 18 20 mph 1018.7mb 49f
6:00 20 22 mph 1018.5mb 50f
5:00 18 21 mph 1018.5mb 50f
4:00 22 26 mph 1018.6mb 50f
3:00 23 29 mph 1018.6mb 50f
2:00 20 25 mph 1019.1mb 51f
1:00 23 31 mph 1019mb 51f
12:00 22 31 mph 1019mb 51f
mar 05/03 11:00 26 31 mph 1018.8mb 51f
10:00 29 36 mph 1018.4mb 51f
9:00 18 26 mph 1018.3mb 52f
8:00 22 31 mph 1017.7mb 53f
7:00 24 28 mph 1017.5mb 53f
6:00 21 22 mph 1017.6mb 53f
5:00 18 25 mph 1017.5mb 55f
4:00 23 29 mph 1017.2mb 55f
3:00 15 21 mph 1017.6mb 55f
2:00 14 18 mph 1017.5mb 56f
1:00 10 14 mph 1017.5mb 56f
12:00 7 10 mph 1017.7mb 57f
11:00 8
mph
1017.4mb 56f
10:00 13 15 mph 1017.2mb 55f
9:00 10 11 mph 1016.8mb 54f
8:00 15 16 mph 1016.3mb 54f
7:00 13 16 mph 1016mb 54f
6:00 24 28 mph 1015.4mb 54f
5:00 11 14 mph 1014.7mb 53f
4:00 11 14 mph 1014.8mb 54f
3:00 7
mph
1014.8mb 54f
2:00 8 10 mph 1014.7mb 55f
1:00 2 3 mph 1014.8mb 53f
12:00 15 16 mph 1013.8mb 55f
lun 05/02 11:00 11 13 mph 1013.6mb 56f
10:00 13
mph
1013.8mb 57f
9:00 7 8 mph 1013.2mb 60f
8:00 9 10 mph 1012.5mb 57f